createdAt,value
2019-03-17T00:00:11.634Z,97.40
2019-03-17T00:02:41.036Z,97.40
2019-03-17T00:05:10.149Z,97.40
2019-03-17T00:10:14.200Z,97.40
2019-03-17T00:12:43.359Z,97.40
2019-03-17T00:15:12.723Z,97.40
2019-03-17T00:17:42.114Z,97.50
2019-03-17T00:20:11.320Z,97.50
2019-03-17T00:22:40.544Z,97.50
2019-03-17T00:25:10.323Z,97.40
2019-03-17T00:27:39.573Z,97.50
2019-03-17T00:30:09.069Z,97.50
2019-03-17T00:32:38.138Z,97.50
2019-03-17T00:35:08.087Z,97.50
2019-03-17T00:37:37.370Z,97.50
2019-03-17T00:40:06.473Z,97.50
2019-03-17T00:42:35.478Z,97.50
2019-03-17T00:45:05.220Z,97.50
2019-03-17T00:47:34.433Z,97.50
2019-03-17T00:50:05.024Z,97.50
2019-03-17T00:52:34.391Z,97.50
2019-03-17T00:55:03.372Z,97.50
2019-03-17T00:57:32.461Z,97.50
2019-03-17T01:00:01.477Z,97.50
2019-03-17T01:02:30.637Z,97.50
2019-03-17T01:04:59.794Z,97.50
2019-03-17T01:07:29.090Z,97.40
2019-03-17T01:09:58.422Z,97.40
2019-03-17T01:12:27.777Z,97.30
2019-03-17T01:14:56.913Z,97.30
2019-03-17T01:17:26.023Z,97.20
2019-03-17T01:19:55.205Z,97.20
2019-03-17T01:22:24.571Z,97.30
2019-03-17T01:27:28.237Z,97.10
2019-03-17T01:29:57.613Z,97.10
2019-03-17T01:32:27.276Z,97.00
2019-03-17T01:35:08.223Z,97.00
2019-03-17T01:37:27.097Z,97.00
2019-03-17T01:39:56.703Z,97.00
2019-03-17T01:42:25.716Z,96.80
2019-03-17T01:44:55.530Z,96.90
2019-03-17T01:47:27.557Z,96.90
2019-03-17T01:49:55.392Z,96.90
2019-03-17T01:52:24.817Z,96.80
2019-03-17T01:54:53.834Z,96.80
2019-03-17T01:59:58.115Z,96.80
2019-03-17T02:02:27.490Z,96.60
2019-03-17T02:04:56.714Z,96.70
2019-03-17T02:07:25.789Z,96.60
2019-03-17T02:09:55.030Z,96.60
2019-03-17T02:12:24.183Z,96.60
2019-03-17T02:14:53.762Z,96.60
2019-03-17T02:17:22.963Z,96.60
2019-03-17T02:19:52.570Z,96.50
2019-03-17T02:22:22.338Z,96.60
2019-03-17T02:24:51.634Z,96.50
2019-03-17T02:27:20.764Z,96.50
2019-03-17T02:29:50.221Z,96.50
2019-03-17T02:32:19.659Z,96.50
2019-03-17T02:34:49.747Z,96.50
2019-03-17T02:37:19.174Z,96.50
2019-03-17T02:39:48.489Z,96.50
2019-03-17T02:42:17.624Z,96.50
2019-03-17T02:44:47.177Z,96.50
2019-03-17T02:47:16.345Z,96.40
2019-03-17T02:49:45.808Z,96.50
2019-03-17T02:52:14.953Z,96.40
2019-03-17T02:54:44.074Z,96.50
2019-03-17T02:57:13.391Z,96.50
2019-03-17T02:59:42.528Z,96.50
2019-03-17T03:02:11.899Z,96.40
2019-03-17T03:04:41.349Z,96.50
2019-03-17T03:07:10.549Z,96.40
2019-03-17T03:09:39.984Z,96.30
2019-03-17T03:12:09.218Z,96.30
2019-03-17T03:14:38.355Z,96.30
2019-03-17T03:17:07.857Z,96.30
2019-03-17T03:19:37.487Z,96.30
2019-03-17T03:22:06.710Z,96.30
2019-03-17T03:24:35.999Z,96.30
2019-03-17T03:27:05.104Z,96.20
2019-03-17T03:29:40.349Z,96.20
2019-03-17T03:32:09.586Z,96.10
2019-03-17T03:34:39.343Z,96.20
2019-03-17T03:37:08.525Z,96.20
2019-03-17T03:39:37.732Z,96.20
2019-03-17T03:42:06.845Z,96.10
2019-03-17T03:44:36.357Z,96.20
2019-03-17T03:47:05.778Z,96.20
2019-03-17T03:49:34.879Z,96.10
2019-03-17T03:52:04.424Z,96.10
2019-03-17T03:54:33.781Z,96.10
2019-03-17T03:57:03.230Z,96.00
2019-03-17T03:59:32.390Z,96.00
2019-03-17T04:02:01.598Z,96.00
2019-03-17T04:04:31.080Z,95.80
2019-03-17T04:07:00.599Z,95.80
2019-03-17T04:09:32.856Z,95.90
2019-03-17T04:12:02.317Z,96.00
2019-03-17T04:14:31.508Z,95.90
2019-03-17T04:17:00.921Z,95.90
2019-03-17T04:19:30.445Z,95.90
2019-03-17T04:21:59.581Z,95.90
2019-03-17T04:24:29.940Z,95.80
2019-03-17T04:27:02.205Z,95.80
2019-03-17T04:29:31.369Z,95.80
2019-03-17T04:32:00.732Z,95.80
2019-03-17T04:34:30.021Z,95.80
2019-03-17T04:36:59.100Z,95.80
2019-03-17T04:39:28.213Z,95.70
2019-03-17T04:41:57.333Z,95.60
2019-03-17T04:44:26.798Z,95.70
2019-03-17T04:46:55.989Z,95.60
2019-03-17T04:49:25.414Z,95.60
2019-03-17T04:51:54.909Z,95.70
2019-03-17T04:54:24.068Z,95.70
2019-03-17T04:56:53.255Z,95.60
2019-03-17T04:59:22.551Z,95.60
2019-03-17T05:01:51.769Z,95.80
2019-03-17T05:04:21.046Z,95.60
2019-03-17T05:06:52.946Z,96.00
2019-03-17T05:09:21.362Z,95.60
2019-03-17T05:11:50.591Z,95.70
2019-03-17T05:14:20.297Z,95.70
2019-03-17T05:16:49.898Z,95.60
2019-03-17T05:19:19.610Z,95.60
2019-03-17T05:21:48.871Z,95.60
2019-03-17T05:24:18.314Z,95.70
2019-03-17T05:26:47.601Z,95.70
2019-03-17T05:32:11.151Z,95.80
2019-03-17T05:34:40.793Z,95.80
2019-03-17T05:37:10.298Z,95.80
2019-03-17T05:39:39.750Z,95.80
2019-03-17T05:42:09.404Z,95.80
2019-03-17T05:44:39.451Z,95.90
2019-03-17T05:47:09.040Z,95.90
2019-03-17T05:49:38.533Z,96.00
2019-03-17T05:52:07.958Z,96.30
2019-03-17T05:54:37.335Z,96.10
2019-03-17T05:57:07.042Z,96.10
2019-03-17T05:59:36.288Z,96.20
2019-03-17T06:05:46.670Z,96.30
2019-03-17T06:08:16.791Z,96.40
2019-03-17T06:10:46.992Z,96.50
2019-03-17T06:13:18.232Z,96.60
2019-03-17T06:15:48.223Z,96.70
2019-03-17T06:18:18.268Z,96.80
2019-03-17T06:20:48.282Z,96.90
2019-03-17T06:23:17.718Z,97.00
2019-03-17T06:25:47.235Z,97.10
2019-03-17T06:28:16.707Z,97.50
2019-03-17T06:30:46.687Z,97.50
2019-03-17T06:33:16.126Z,97.30
2019-03-17T06:35:45.907Z,97.40
2019-03-17T06:38:15.517Z,97.40
2019-03-17T06:40:45.029Z,97.50
2019-03-17T06:43:14.407Z,97.60
2019-03-17T06:45:43.968Z,97.60
2019-03-17T06:48:13.576Z,97.60
2019-03-17T06:50:42.846Z,97.70
2019-03-17T06:53:12.388Z,97.80
2019-03-17T06:55:41.734Z,97.90
2019-03-17T06:58:11.165Z,97.90
2019-03-17T07:00:41.470Z,97.90
2019-03-17T07:03:10.676Z,97.90
2019-03-17T07:05:40.052Z,98.00
2019-03-17T07:08:09.298Z,98.00
2019-03-17T07:10:38.916Z,98.10
2019-03-17T07:13:08.329Z,98.10
2019-03-17T07:15:37.883Z,98.20
2019-03-17T07:18:07.670Z,98.10
2019-03-17T07:20:37.476Z,98.20
2019-03-17T07:23:06.957Z,98.20
2019-03-17T07:25:36.646Z,98.20
2019-03-17T07:28:05.974Z,98.30
2019-03-17T07:30:35.685Z,98.40
2019-03-17T07:33:05.375Z,98.40
2019-03-17T07:35:35.516Z,98.40
2019-03-17T07:38:05.285Z,98.40
2019-03-17T07:40:34.642Z,98.50
2019-03-17T07:43:04.842Z,98.50
2019-03-17T07:49:15.945Z,98.60
2019-03-17T07:51:45.622Z,98.60
2019-03-17T07:54:15.177Z,98.60
2019-03-17T07:56:44.709Z,98.60
2019-03-17T07:59:14.169Z,98.70
2019-03-17T08:01:43.912Z,98.60
2019-03-17T08:07:54.734Z,98.80
2019-03-17T08:10:24.190Z,98.80
2019-03-17T08:12:53.639Z,98.90
2019-03-17T08:15:23.360Z,98.80
2019-03-17T08:17:53.092Z,98.90
2019-03-17T08:20:22.992Z,98.90
2019-03-17T08:22:52.453Z,98.90
2019-03-17T08:25:21.812Z,98.80
2019-03-17T08:27:51.325Z,98.90
2019-03-17T08:30:21.004Z,98.80
2019-03-17T08:32:50.420Z,98.70
2019-03-17T08:35:20.372Z,98.70
2019-03-17T08:37:49.966Z,98.70
2019-03-17T08:40:19.372Z,98.70
2019-03-17T08:42:49.006Z,98.70
2019-03-17T08:45:18.406Z,98.80
2019-03-17T08:47:57.116Z,98.60
2019-03-17T08:50:24.702Z,98.70
2019-03-17T08:52:54.496Z,99.00
2019-03-17T08:55:24.217Z,98.60
2019-03-17T08:57:55.277Z,98.60
2019-03-17T09:00:24.685Z,98.60
2019-03-17T09:02:54.155Z,98.60
2019-03-17T09:05:23.637Z,98.60
2019-03-17T09:07:53.054Z,98.50
2019-03-17T09:10:22.384Z,98.50
2019-03-17T09:12:52.003Z,98.50
2019-03-17T09:15:26.590Z,98.90
2019-03-17T09:17:56.174Z,98.50
2019-03-17T09:20:25.729Z,98.70
2019-03-17T09:22:55.341Z,98.50
2019-03-17T09:25:24.817Z,98.50
2019-03-17T09:27:54.389Z,98.40
2019-03-17T09:30:25.583Z,98.50
2019-03-17T09:32:55.342Z,98.40
2019-03-17T09:35:24.816Z,98.40
2019-03-17T09:37:54.372Z,98.50
2019-03-17T09:40:23.751Z,98.40
2019-03-17T09:42:53.119Z,98.20
2019-03-17T09:45:48.853Z,98.20
2019-03-17T09:48:18.469Z,98.30
2019-03-17T09:50:48.106Z,98.20
2019-03-17T09:53:17.478Z,98.30
2019-03-17T09:56:04.549Z,98.40
2019-03-17T09:58:33.896Z,98.30
2019-03-17T10:01:03.270Z,98.30
2019-03-17T10:03:32.879Z,98.40
2019-03-17T10:06:02.280Z,98.30
2019-03-17T10:08:31.518Z,98.40
2019-03-17T10:11:00.873Z,98.30
2019-03-17T10:13:30.461Z,98.30
2019-03-17T10:15:59.856Z,98.20
2019-03-17T10:18:29.300Z,98.20
2019-03-17T10:20:58.628Z,98.20
2019-03-17T10:23:28.209Z,98.20
2019-03-17T10:25:57.576Z,98.20
2019-03-17T10:28:26.931Z,98.00
2019-03-17T10:30:56.709Z,98.00
2019-03-17T10:33:38.269Z,98.10
2019-03-17T10:36:07.949Z,98.10
2019-03-17T10:38:37.262Z,98.00
2019-03-17T10:41:06.640Z,97.90
2019-03-17T10:43:36.281Z,97.90
2019-03-17T10:46:05.600Z,97.90
2019-03-17T10:48:50.838Z,97.90
2019-03-17T10:51:20.148Z,97.90
2019-03-17T10:53:49.491Z,97.90
2019-03-17T10:56:18.868Z,97.90
2019-03-17T10:58:48.190Z,97.80
2019-03-17T11:01:18.040Z,97.70
2019-03-17T11:03:47.469Z,97.70
2019-03-17T11:06:17.050Z,97.70
2019-03-17T11:08:47.817Z,97.70
2019-03-17T11:11:17.489Z,98.00
2019-03-17T11:13:47.135Z,97.40
2019-03-17T11:16:16.570Z,97.30
2019-03-17T11:18:45.759Z,97.30
2019-03-17T11:21:37.545Z,97.40
2019-03-17T11:24:06.844Z,97.40
2019-03-17T11:26:36.684Z,97.20
2019-03-17T11:29:06.051Z,97.30
2019-03-17T11:35:16.621Z,97.00
2019-03-17T11:37:46.064Z,97.00
2019-03-17T11:40:15.721Z,96.60
2019-03-17T11:42:45.118Z,96.30
2019-03-17T11:45:14.531Z,96.30
2019-03-17T11:47:49.890Z,96.00
2019-03-17T11:50:19.427Z,95.90
2019-03-17T11:52:48.859Z,95.70
2019-03-17T11:55:18.448Z,95.90
2019-03-17T11:57:47.775Z,96.10
2019-03-17T12:00:17.325Z,96.00
2019-03-17T12:02:50.082Z,95.50
2019-03-17T12:05:19.906Z,95.40
2019-03-17T12:07:49.402Z,95.40
2019-03-17T12:10:18.956Z,95.30
2019-03-17T12:12:48.370Z,94.90
2019-03-17T12:15:17.802Z,94.70
2019-03-17T12:17:47.540Z,94.50
2019-03-17T12:20:16.968Z,93.80
2019-03-17T12:22:46.462Z,94.00
2019-03-17T12:25:16.068Z,93.50
2019-03-17T12:27:45.490Z,94.00
2019-03-17T12:30:21.487Z,94.00
2019-03-17T12:32:51.279Z,93.80
2019-03-17T12:35:20.774Z,93.70
2019-03-17T12:37:50.282Z,93.90
2019-03-17T12:40:19.699Z,93.80
2019-03-17T12:42:49.078Z,94.30
2019-03-17T12:45:18.912Z,94.00
2019-03-17T12:47:48.292Z,93.80
2019-03-17T12:50:17.662Z,93.90
2019-03-17T12:52:47.053Z,94.40
2019-03-17T12:55:16.430Z,94.10
2019-03-17T12:57:46.133Z,93.70
2019-03-17T13:00:16.076Z,93.20
2019-03-17T13:06:27.215Z,93.10
2019-03-17T13:09:01.022Z,93.50
2019-03-17T13:11:31.038Z,93.80
2019-03-17T13:14:00.752Z,94.00
2019-03-17T13:16:30.130Z,94.50
2019-03-17T13:18:59.924Z,94.70
2019-03-17T13:25:10.790Z,93.90
2019-03-17T13:27:40.860Z,93.40
2019-03-17T13:30:11.473Z,93.90
2019-03-17T13:36:22.562Z,93.20
2019-03-17T13:38:52.466Z,92.90
2019-03-17T13:41:22.066Z,93.20
2019-03-17T13:43:51.835Z,93.50
2019-03-17T13:46:21.299Z,93.70
2019-03-17T13:48:50.766Z,93.70
2019-03-17T13:51:20.063Z,93.60
2019-03-17T13:53:49.379Z,93.10
2019-03-17T13:56:18.678Z,92.50
2019-03-17T13:58:48.824Z,92.30
2019-03-17T14:01:18.085Z,92.50
2019-03-17T14:03:47.963Z,92.30
2019-03-17T14:06:17.771Z,92.60
2019-03-17T14:08:47.429Z,92.30
2019-03-17T14:11:16.815Z,92.70
2019-03-17T14:13:46.515Z,92.20
2019-03-17T14:16:15.958Z,92.60
2019-03-17T14:18:45.910Z,92.40
2019-03-17T14:21:15.635Z,92.60
2019-03-17T14:23:45.242Z,92.70
2019-03-17T14:26:15.069Z,92.40
2019-03-17T14:28:44.873Z,92.50
2019-03-17T14:31:14.153Z,92.30
2019-03-17T14:33:43.820Z,92.70
2019-03-17T14:36:13.177Z,93.20
2019-03-17T14:38:43.031Z,93.10
2019-03-17T14:41:12.811Z,93.30
2019-03-17T14:43:42.941Z,93.30
2019-03-17T14:46:12.276Z,92.90
2019-03-17T14:52:23.413Z,92.40
2019-03-17T14:54:52.812Z,91.30
2019-03-17T14:57:22.326Z,90.70
2019-03-17T14:59:52.920Z,91.40
2019-03-17T15:02:22.495Z,91.70
2019-03-17T15:04:54.659Z,91.50
2019-03-17T15:07:26.181Z,91.60
2019-03-17T15:09:55.452Z,91.70
2019-03-17T15:12:25.572Z,91.80
2019-03-17T15:14:55.529Z,91.60
2019-03-17T15:21:08.652Z,91.80
2019-03-17T15:23:38.089Z,91.80
2019-03-17T15:26:07.539Z,91.60
2019-03-17T15:28:37.395Z,91.70
2019-03-17T15:31:11.842Z,91.90
2019-03-17T15:37:19.366Z,91.90
2019-03-17T15:43:36.975Z,91.30
2019-03-17T15:49:57.990Z,92.10
2019-03-17T15:52:29.452Z,92.40
2019-03-17T15:55:01.834Z,92.70
2019-03-17T15:57:31.262Z,92.90
2019-03-17T16:00:02.403Z,93.10
2019-03-17T16:02:32.971Z,93.20
2019-03-17T16:05:03.437Z,93.30
2019-03-17T16:07:41.771Z,93.40
2019-03-17T16:10:04.939Z,93.30
2019-03-17T16:16:15.975Z,93.30
2019-03-17T16:18:52.665Z,93.30
2019-03-17T16:21:32.624Z,93.30
2019-03-17T16:24:10.220Z,93.20
2019-03-17T16:30:22.732Z,93.20
2019-03-17T16:32:55.050Z,93.30
2019-03-17T16:35:30.826Z,93.50
2019-03-17T16:41:44.098Z,93.50
2019-03-17T16:44:13.876Z,93.70
2019-03-17T16:46:43.899Z,93.50
2019-03-17T16:49:13.443Z,93.50
2019-03-17T16:51:43.425Z,93.60
2019-03-17T16:58:19.133Z,93.70
2019-03-17T17:00:40.492Z,93.80
2019-03-17T17:03:15.844Z,93.70
2019-03-17T17:09:03.252Z,93.70
2019-03-17T17:11:33.139Z,93.70
2019-03-17T17:14:21.877Z,93.70
2019-03-17T17:20:32.798Z,93.70
2019-03-17T17:23:13.727Z,93.60
2019-03-17T17:25:44.699Z,93.70
2019-03-17T17:28:21.061Z,93.60
2019-03-17T17:31:27.878Z,93.60
2019-03-17T17:33:57.713Z,93.70
2019-03-17T17:36:28.918Z,93.70
2019-03-17T17:38:59.061Z,93.70
2019-03-17T17:41:28.616Z,93.70
2019-03-17T17:43:59.071Z,93.70
2019-03-17T17:46:28.698Z,93.70
2019-03-17T17:49:05.818Z,93.90
2019-03-17T17:51:35.524Z,94.00
2019-03-17T17:54:05.098Z,93.80
2019-03-17T17:56:34.438Z,93.90
2019-03-17T17:59:03.948Z,94.00
2019-03-17T18:01:33.577Z,94.00
2019-03-17T18:04:02.831Z,94.10
2019-03-17T18:06:32.459Z,94.10
2019-03-17T18:09:02.802Z,94.10
2019-03-17T18:11:32.668Z,94.10
2019-03-17T18:14:01.942Z,94.20
2019-03-17T18:16:31.520Z,94.30
2019-03-17T18:19:01.918Z,94.30
2019-03-17T18:21:31.343Z,94.30
2019-03-17T18:24:00.677Z,94.30
2019-03-17T18:26:30.529Z,94.20
2019-03-17T18:28:59.772Z,94.20
2019-03-17T18:31:29.345Z,94.20
2019-03-17T18:33:58.832Z,94.10
2019-03-17T18:36:28.679Z,94.10
2019-03-17T18:38:58.545Z,94.10
2019-03-17T18:41:27.793Z,94.00
2019-03-17T18:43:57.396Z,94.00
2019-03-17T18:46:26.642Z,94.00
2019-03-17T18:48:58.490Z,94.00
2019-03-17T18:51:32.779Z,94.00
2019-03-17T18:54:05.352Z,94.00
2019-03-17T18:56:33.635Z,94.10
2019-03-17T18:59:03.034Z,94.50
2019-03-17T19:01:32.560Z,94.30
2019-03-17T19:04:02.073Z,94.40
2019-03-17T19:06:31.682Z,94.50
2019-03-17T19:09:01.153Z,94.70
2019-03-17T19:11:30.666Z,94.80
2019-03-17T19:13:59.988Z,94.90
2019-03-17T19:16:29.508Z,94.90
2019-03-17T19:18:59.756Z,94.90
2019-03-17T19:21:31.291Z,95.00
2019-03-17T19:24:01.016Z,95.00
2019-03-17T19:26:30.564Z,95.00
2019-03-17T19:28:59.980Z,95.10
2019-03-17T19:31:29.174Z,95.10
2019-03-17T19:33:58.869Z,95.10
2019-03-17T19:36:28.436Z,95.20
2019-03-17T19:38:58.059Z,95.20
2019-03-17T19:41:27.704Z,95.30
2019-03-17T19:43:57.273Z,95.30
2019-03-17T19:46:26.649Z,95.30
2019-03-17T19:48:56.255Z,95.40
2019-03-17T19:51:25.898Z,95.50
2019-03-17T19:53:55.190Z,95.40
2019-03-17T19:56:24.743Z,95.40
2019-03-17T19:58:54.553Z,95.40
2019-03-17T20:01:23.851Z,95.40
2019-03-17T20:04:01.340Z,95.50
2019-03-17T20:06:30.559Z,95.60
2019-03-17T20:08:59.902Z,95.60
2019-03-17T20:11:29.127Z,95.60
2019-03-17T20:14:04.036Z,95.60
2019-03-17T20:16:32.868Z,95.60
2019-03-17T20:19:05.649Z,95.70
2019-03-17T20:21:38.081Z,95.70
2019-03-17T20:24:26.928Z,95.70
2019-03-17T20:26:56.907Z,95.70
2019-03-17T20:29:28.821Z,96.00
2019-03-17T20:31:57.925Z,95.70
2019-03-17T20:34:27.409Z,95.70
2019-03-17T20:36:56.877Z,95.80
2019-03-17T20:39:26.389Z,95.70
2019-03-17T20:41:56.460Z,95.90
2019-03-17T20:45:02.748Z,95.80
2019-03-17T20:47:32.027Z,95.90
2019-03-17T20:50:01.356Z,95.80
2019-03-17T20:52:40.593Z,95.90
2019-03-17T20:55:14.583Z,95.90
2019-03-17T21:09:19.448Z,96.10
2019-03-17T21:11:48.972Z,96.10
2019-03-17T21:14:20.337Z,96.10
2019-03-17T21:16:49.534Z,96.10
2019-03-17T21:19:28.481Z,96.10
2019-03-17T21:22:38.425Z,96.20
2019-03-17T21:25:11.370Z,96.20
2019-03-17T21:27:40.597Z,96.10
2019-03-17T21:34:15.432Z,96.20
2019-03-17T21:40:28.971Z,96.20
2019-03-17T21:43:36.266Z,96.20
2019-03-17T21:46:36.430Z,96.20
2019-03-17T22:06:49.373Z,96.30
2019-03-17T22:13:02.864Z,96.40
2019-03-17T22:15:37.561Z,96.30
2019-03-17T22:19:03.372Z,96.30
2019-03-17T22:21:37.947Z,96.40
2019-03-17T22:25:01.265Z,96.40
2019-03-17T22:27:51.683Z,96.50
2019-03-17T22:31:15.574Z,96.50
2019-03-17T22:34:48.445Z,96.50
2019-03-17T22:37:20.299Z,96.50
2019-03-17T22:40:11.238Z,96.40
2019-03-17T22:43:35.152Z,96.40
2019-03-17T22:46:07.807Z,96.50
2019-03-17T22:52:21.286Z,96.60
2019-03-17T22:54:57.153Z,96.50
2019-03-17T22:57:46.085Z,96.50
2019-03-17T23:00:26.396Z,96.60
2019-03-17T23:06:39.504Z,96.60
2019-03-17T23:09:09.137Z,96.60
2019-03-17T23:11:39.563Z,96.60
2019-03-17T23:14:09.656Z,96.60
2019-03-17T23:16:40.963Z,96.70
2019-03-17T23:19:10.734Z,96.70
2019-03-17T23:22:01.268Z,96.70
2019-03-17T23:24:38.203Z,96.80
2019-03-17T23:27:07.598Z,96.70
2019-03-17T23:29:40.246Z,96.80
2019-03-17T23:32:10.729Z,96.80
2019-03-17T23:35:44.049Z,96.80
2019-03-17T23:38:14.987Z,96.80
2019-03-17T23:40:47.355Z,96.80
2019-03-17T23:43:19.421Z,96.80
2019-03-17T23:45:49.313Z,96.90
2019-03-17T23:48:19.256Z,96.90
2019-03-17T23:50:50.239Z,96.90
2019-03-17T23:53:25.439Z,96.90
2019-03-17T23:55:58.013Z,97.00
2019-03-17T23:58:33.400Z,96.90
